Butterfly — C6UP2 — position and weather

sailwx.info

Track history (hours):
 
Tides and Currents Weather Stations Pressure Air Temp Water Temp Dewpoint Dewpoint Depression Visibility Wind Speed Wind Dir Waves Ship Positions

Butterfly

Last reported at 2014-Oct-22 13:30 UTC. Time now 2014-Oct-22 23:22 UTC.
Position N 46°37' W 071°59'.

Length 182 m; draft 10.7 m.

Type: Tanker. MMSI: 311985000.

Date/timePositionNaut miles runAvg speedWind from/ knotsBaromVisibWave heightAir tempDewpointWater temp
2014-Oct-22 13:30N 46°37' W 071°59'1111.7
2014-Oct-22 12:33N 46°31' W 072°13'10 9.9
2014-Oct-22 11:33N 46°25' W 072°23'1010.1
2014-Oct-22 10:33N 46°18' W 072°34'10 9.5
2014-Oct-22 09:33N 46°14' W 072°47'2211.2
2014-Oct-22 07:33N 45°59' W 073°11'1212.1
2014-Oct-22 06:33N 45°48' W 073°19'1212.1
2014-Oct-22 05:33N 45°38' W 073°29'2 1.8
2014-Oct-22 04:31N 45°37' W 073°30'0 0.0
2014-Oct-22 03:31N 45°37' W 073°30'0 0.0
2014-Oct-22 02:28N 45°37' W 073°30'0 0.0
2014-Oct-22 01:31N 45°37' W 073°30'0 0.0
2014-Oct-22 00:31N 45°37' W 073°30'0 0.0
2014-Oct-21 23:25N 45°37' W 073°30'0 0.0
2014-Oct-21 22:31N 45°37' W 073°30'0 0.0
2014-Oct-21 21:31N 45°37' W 073°30'0 0.0
2014-Oct-21 20:28N 45°37' W 073°30'0 0.0
2014-Oct-21 19:28N 45°37' W 073°30'0 0.0
2014-Oct-21 18:31N 45°37' W 073°30'0 0.0
2014-Oct-21 17:28N 45°37' W 073°30'0 0.0
2014-Oct-21 16:31N 45°37' W 073°30'0 0.0
2014-Oct-21 15:31N 45°37' W 073°30'0 0.0
2014-Oct-21 14:31N 45°37' W 073°30'0 0.0
2014-Oct-21 13:28N 45°37' W 073°30'0 0.0
2014-Oct-21 12:31N 45°37' W 073°30'0 0.0
2014-Oct-21 11:31N 45°37' W 073°30'0 0.0
2014-Oct-21 10:31N 45°37' W 073°30'0 0.0
2014-Oct-21 09:31N 45°37' W 073°30'0 0.0
2014-Oct-21 08:31N 45°37' W 073°30'0 0.0
2014-Oct-21 07:31N 45°37' W 073°30'0 0.0
2014-Oct-21 06:28N 45°37' W 073°30'0 0.0
2014-Oct-21 05:31N 45°37' W 073°30'0 0.0
2014-Oct-21 04:28N 45°37' W 073°30'0 0.0
2014-Oct-21 03:28N 45°37' W 073°30'0 0.0
2014-Oct-21 02:31N 45°37' W 073°30'0 0.0
2014-Oct-21 01:28N 45°37' W 073°30'0 0.0
2014-Oct-21 00:31N 45°37' W 073°30'0 0.0
2014-Oct-20 16:28N 45°37' W 073°30'0 0.0
2014-Oct-20 15:31N 45°37' W 073°30'0 0.0
2014-Oct-20 14:31N 45°37' W 073°30'0 0.1
2014-Oct-20 13:33N 45°37' W 073°30'2 1.7
2014-Oct-20 12:33N 45°38' W 073°29'0 0.0
2014-Oct-20 11:33N 45°38' W 073°29'0 0.0
2014-Oct-20 10:30N 45°38' W 073°29'0 0.0
2014-Oct-20 09:33N 45°38' W 073°29'0 0.0
2014-Oct-20 08:33N 45°38' W 073°29'0 0.0
2014-Oct-20 07:33N 45°38' W 073°29'0 0.0
2014-Oct-20 06:33N 45°38' W 073°29'0 0.0
2014-Oct-20 05:33N 45°38' W 073°29'0 0.0
2014-Oct-20 04:33N 45°38' W 073°29'0 0.0
2014-Oct-20 03:33N 45°38' W 073°29'0 0.0
2014-Oct-20 02:33N 45°38' W 073°29'0 0.0
2014-Oct-20 01:33N 45°38' W 073°29'0 0.0
2014-Oct-20 00:33N 45°38' W 073°29'0 0.0
2014-Oct-19 23:33N 45°38' W 073°29'0 0.0
2014-Oct-19 22:33N 45°38' W 073°29'0 0.0
2014-Oct-19 21:33N 45°38' W 073°29'0 0.0
2014-Oct-19 20:33N 45°38' W 073°29'0 0.0
2014-Oct-19 19:33N 45°38' W 073°29'0 0.0
2014-Oct-19 18:33N 45°38' W 073°29'0 0.0
2014-Oct-19 17:33N 45°38' W 073°29'0 0.0
2014-Oct-19 16:33N 45°38' W 073°29'1 0.6
2014-Oct-19 15:34N 45°39' W 073°29'9 9.0
2014-Oct-19 14:34N 45°47' W 073°22'10 9.8
2014-Oct-19 13:34N 45°54' W 073°13'10 9.8
2014-Oct-19 12:34N 46°03' W 073°08'9 9.4
2014-Oct-19 11:33N 46°09' W 072°57'1111.0
2014-Oct-19 10:33N 46°15' W 072°44'9 9.2
2014-Oct-19 09:33N 46°20' W 072°33'10 9.7
2014-Oct-19 08:33N 46°26' W 072°22'1010.4
2014-Oct-19 07:33N 46°32' W 072°10'  
2014-Oct-14 21:32N 40°28' W 067°27'1412.8
2014-Oct-14 20:27N 40°27' W 067°46'910.0
2014-Oct-14 19:33N 40°27' W 067°58'0 0.5
2014-Oct-14 18:32N 40°27' W 067°57'1 0.6
2014-Oct-14 17:20N 40°27' W 067°58'1210.8
2014-Oct-14 16:15N 40°27' W 068°13'912.1
2014-Oct-14 15:30N 40°27' W 068°25'2312.1
2014-Oct-14 13:33N 40°26' W 068°56'1312.7
2014-Oct-14 12:32N 40°26' W 069°13'1212.7
2014-Oct-14 11:33N 40°26' W 069°29'1812.6
2014-Oct-14 10:07N 40°25' W 069°53'2312.7
2014-Oct-14 08:16N 40°25' W 070°24'1112.6
2014-Oct-14 07:24N 40°25' W 070°38'1112.6
2014-Oct-14 06:29N 40°24' W 070°53'1212.5
2014-Oct-14 05:33N 40°24' W 071°09'1212.4
2014-Oct-14 04:33N 40°24' W 071°25'1212.1
2014-Oct-14 03:33N 40°23' W 071°41'1212.3
2014-Oct-14 02:33N 40°24' W 071°57'1212.0
2014-Oct-14 01:33N 40°24' W 072°13'1211.7
2014-Oct-14 00:33N 40°23' W 072°28'1111.2
2014-Oct-13 23:33N 40°22' W 072°43'8 7.9
2014-Oct-13 22:33N 40°22' W 072°53'6 5.7
2014-Oct-13 21:33N 40°22' W 073°01'6 5.8
2014-Oct-13 20:34N 40°22' W 073°08'6 5.6
2014-Oct-13 19:33N 40°22' W 073°15'6 5.9
2014-Oct-13 18:33N 40°21' W 073°23'3 2.5
2014-Oct-13 17:33N 40°21' W 073°26'0 0.1
2014-Oct-13 16:33N 40°21' W 073°26'0 0.0
2014-Oct-13 15:33N 40°21' W 073°26'0 0.0
2014-Oct-13 14:33N 40°21' W 073°26'0 0.0
2014-Oct-13 13:33N 40°21' W 073°26'0 0.0
2014-Oct-13 12:33N 40°21' W 073°26'0 0.0
2014-Oct-13 11:33N 40°21' W 073°26'0 0.0
2014-Oct-13 10:27N 40°21' W 073°26'0 0.0
2014-Oct-13 09:33N 40°21' W 073°26'0 0.0
2014-Oct-13 08:33N 40°21' W 073°26'0 0.0
2014-Oct-13 07:33N 40°21' W 073°26'0 0.0
2014-Oct-13 06:33N 40°21' W 073°26'0 0.0
2014-Oct-13 05:33N 40°21' W 073°26'0 0.0
2014-Oct-13 04:30N 40°21' W 073°26'0 0.0
2014-Oct-13 03:27N 40°21' W 073°26'0 0.0
2014-Oct-13 02:27N 40°21' W 073°26'0 0.0
2014-Oct-13 01:15N 40°21' W 073°26'0 0.0
2014-Oct-13 00:33N 40°21' W 073°26'0 0.0
2014-Oct-12 23:18N 40°21' W 073°26'0 0.0
2014-Oct-12 22:33N 40°21' W 073°26'0 0.2
2014-Oct-12 21:33N 40°21' W 073°27'1211.7
2014-Oct-12 20:33N 40°25' W 073°41'1413.3
2014-Oct-12 19:32N 40°30' W 073°58'1110.6
2014-Oct-12 18:29N 40°39' W 074°07'3 3.2
2014-Oct-12 17:33N 40°42' W 074°08'  
Track history (hours):
 
Tides and Currents Weather Stations Pressure Air Temp Water Temp Dewpoint Dewpoint Depression Visibility Wind Speed Wind Dir Waves Ship Positions

Butterfly

Last reported at 2014-Oct-22 13:30 UTC. Time now 2014-Oct-22 23:22 UTC.
Position N 46°37' W 071°59'.

Length 182 m; draft 10.7 m.

Type: Tanker. MMSI: 311985000.

Date/timePositionNaut miles runAvg speedWind from/ knotsBaromVisibWave heightAir tempDewpointWater temp
2014-Oct-22 13:30N 46°37' W 071°59'1111.7
2014-Oct-22 12:33N 46°31' W 072°13'10 9.9
2014-Oct-22 11:33N 46°25' W 072°23'1010.1
2014-Oct-22 10:33N 46°18' W 072°34'10 9.5
2014-Oct-22 09:33N 46°14' W 072°47'2211.2
2014-Oct-22 07:33N 45°59' W 073°11'1212.1
2014-Oct-22 06:33N 45°48' W 073°19'1212.1
2014-Oct-22 05:33N 45°38' W 073°29'2 1.8
2014-Oct-22 04:31N 45°37' W 073°30'0 0.0
2014-Oct-22 03:31N 45°37' W 073°30'0 0.0
2014-Oct-22 02:28N 45°37' W 073°30'0 0.0
2014-Oct-22 01:31N 45°37' W 073°30'0 0.0
2014-Oct-22 00:31N 45°37' W 073°30'0 0.0
2014-Oct-21 23:25N 45°37' W 073°30'0 0.0
2014-Oct-21 22:31N 45°37' W 073°30'0 0.0
2014-Oct-21 21:31N 45°37' W 073°30'0 0.0
2014-Oct-21 20:28N 45°37' W 073°30'0 0.0
2014-Oct-21 19:28N 45°37' W 073°30'0 0.0
2014-Oct-21 18:31N 45°37' W 073°30'0 0.0
2014-Oct-21 17:28N 45°37' W 073°30'0 0.0
2014-Oct-21 16:31N 45°37' W 073°30'0 0.0
2014-Oct-21 15:31N 45°37' W 073°30'0 0.0
2014-Oct-21 14:31N 45°37' W 073°30'0 0.0
2014-Oct-21 13:28N 45°37' W 073°30'0 0.0
2014-Oct-21 12:31N 45°37' W 073°30'0 0.0
2014-Oct-21 11:31N 45°37' W 073°30'0 0.0
2014-Oct-21 10:31N 45°37' W 073°30'0 0.0
2014-Oct-21 09:31N 45°37' W 073°30'0 0.0
2014-Oct-21 08:31N 45°37' W 073°30'0 0.0
2014-Oct-21 07:31N 45°37' W 073°30'0 0.0
2014-Oct-21 06:28N 45°37' W 073°30'0 0.0
2014-Oct-21 05:31N 45°37' W 073°30'0 0.0
2014-Oct-21 04:28N 45°37' W 073°30'0 0.0
2014-Oct-21 03:28N 45°37' W 073°30'0 0.0
2014-Oct-21 02:31N 45°37' W 073°30'0 0.0
2014-Oct-21 01:28N 45°37' W 073°30'0 0.0
2014-Oct-21 00:31N 45°37' W 073°30'0 0.0
2014-Oct-20 16:28N 45°37' W 073°30'0 0.0
2014-Oct-20 15:31N 45°37' W 073°30'0 0.0
2014-Oct-20 14:31N 45°37' W 073°30'0 0.1
2014-Oct-20 13:33N 45°37' W 073°30'2 1.7
2014-Oct-20 12:33N 45°38' W 073°29'0 0.0
2014-Oct-20 11:33N 45°38' W 073°29'0 0.0
2014-Oct-20 10:30N 45°38' W 073°29'0 0.0
2014-Oct-20 09:33N 45°38' W 073°29'0 0.0
2014-Oct-20 08:33N 45°38' W 073°29'0 0.0
2014-Oct-20 07:33N 45°38' W 073°29'0 0.0
2014-Oct-20 06:33N 45°38' W 073°29'0 0.0
2014-Oct-20 05:33N 45°38' W 073°29'0 0.0
2014-Oct-20 04:33N 45°38' W 073°29'0 0.0
2014-Oct-20 03:33N 45°38' W 073°29'0 0.0
2014-Oct-20 02:33N 45°38' W 073°29'0 0.0
2014-Oct-20 01:33N 45°38' W 073°29'0 0.0
2014-Oct-20 00:33N 45°38' W 073°29'0 0.0
2014-Oct-19 23:33N 45°38' W 073°29'0 0.0
2014-Oct-19 22:33N 45°38' W 073°29'0 0.0
2014-Oct-19 21:33N 45°38' W 073°29'0 0.0
2014-Oct-19 20:33N 45°38' W 073°29'0 0.0
2014-Oct-19 19:33N 45°38' W 073°29'0 0.0
2014-Oct-19 18:33N 45°38' W 073°29'0 0.0
2014-Oct-19 17:33N 45°38' W 073°29'0 0.0
2014-Oct-19 16:33N 45°38' W 073°29'1 0.6
2014-Oct-19 15:34N 45°39' W 073°29'9 9.0
2014-Oct-19 14:34N 45°47' W 073°22'10 9.8
2014-Oct-19 13:34N 45°54' W 073°13'10 9.8
2014-Oct-19 12:34N 46°03' W 073°08'9 9.4
2014-Oct-19 11:33N 46°09' W 072°57'1111.0
2014-Oct-19 10:33N 46°15' W 072°44'9 9.2
2014-Oct-19 09:33N 46°20' W 072°33'10 9.7
2014-Oct-19 08:33N 46°26' W 072°22'1010.4
2014-Oct-19 07:33N 46°32' W 072°10'  
2014-Oct-14 21:32N 40°28' W 067°27'1412.8
2014-Oct-14 20:27N 40°27' W 067°46'910.0
2014-Oct-14 19:33N 40°27' W 067°58'0 0.5
2014-Oct-14 18:32N 40°27' W 067°57'1 0.6
2014-Oct-14 17:20N 40°27' W 067°58'1210.8
2014-Oct-14 16:15N 40°27' W 068°13'912.1
2014-Oct-14 15:30N 40°27' W 068°25'2312.1
2014-Oct-14 13:33N 40°26' W 068°56'1312.7
2014-Oct-14 12:32N 40°26' W 069°13'1212.7
2014-Oct-14 11:33N 40°26' W 069°29'1812.6
2014-Oct-14 10:07N 40°25' W 069°53'2312.7
2014-Oct-14 08:16N 40°25' W 070°24'1112.6
2014-Oct-14 07:24N 40°25' W 070°38'1112.6
2014-Oct-14 06:29N 40°24' W 070°53'1212.5
2014-Oct-14 05:33N 40°24' W 071°09'1212.4
2014-Oct-14 04:33N 40°24' W 071°25'1212.1
2014-Oct-14 03:33N 40°23' W 071°41'1212.3
2014-Oct-14 02:33N 40°24' W 071°57'1212.0
2014-Oct-14 01:33N 40°24' W 072°13'1211.7
2014-Oct-14 00:33N 40°23' W 072°28'1111.2
2014-Oct-13 23:33N 40°22' W 072°43'8 7.9
2014-Oct-13 22:33N 40°22' W 072°53'6 5.7
2014-Oct-13 21:33N 40°22' W 073°01'6 5.8
2014-Oct-13 20:34N 40°22' W 073°08'6 5.6
2014-Oct-13 19:33N 40°22' W 073°15'6 5.9
2014-Oct-13 18:33N 40°21' W 073°23'3 2.5
2014-Oct-13 17:33N 40°21' W 073°26'0 0.1
2014-Oct-13 16:33N 40°21' W 073°26'0 0.0
2014-Oct-13 15:33N 40°21' W 073°26'0 0.0
2014-Oct-13 14:33N 40°21' W 073°26'0 0.0
2014-Oct-13 13:33N 40°21' W 073°26'0 0.0
2014-Oct-13 12:33N 40°21' W 073°26'0 0.0
2014-Oct-13 11:33N 40°21' W 073°26'0 0.0
2014-Oct-13 10:27N 40°21' W 073°26'0 0.0
2014-Oct-13 09:33N 40°21' W 073°26'0 0.0
2014-Oct-13 08:33N 40°21' W 073°26'0 0.0
2014-Oct-13 07:33N 40°21' W 073°26'0 0.0
2014-Oct-13 06:33N 40°21' W 073°26'0 0.0
2014-Oct-13 05:33N 40°21' W 073°26'0 0.0
2014-Oct-13 04:30N 40°21' W 073°26'0 0.0
2014-Oct-13 03:27N 40°21' W 073°26'0 0.0
2014-Oct-13 02:27N 40°21' W 073°26'0 0.0
2014-Oct-13 01:15N 40°21' W 073°26'0 0.0
2014-Oct-13 00:33N 40°21' W 073°26'0 0.0
2014-Oct-12 23:18N 40°21' W 073°26'0 0.0
2014-Oct-12 22:33N 40°21' W 073°26'0 0.2
2014-Oct-12 21:33N 40°21' W 073°27'1211.7
2014-Oct-12 20:33N 40°25' W 073°41'1413.3
2014-Oct-12 19:32N 40°30' W 073°58'1110.6
2014-Oct-12 18:29N 40°39' W 074°07'3 3.2
2014-Oct-12 17:33N 40°42' W 074°08'  

Dump ship's entire track history